LEBL/BCN METAR and TAF weather

Enter ICAO airport designator
Station Type Date Time Source
LEBL METAR 2020/09/27 03:30 UTC NOAA

LEBL 270330Z 07008KT 030V110 9999 SCT032 BKN040 15/10 Q1006 NOSIG


Station Type Date Time Source
LEBL Decoded METAR 2020/09/27 03:30 UTC NOAA

Barcelona / Aeropuerto, Spain (LEBL) 41-17N 002-04E 6M
Sep 26, 2020 - 11:30 PM EDT / 2020.09.27 0330 UTC
Wind: from the ENE (070 degrees) at 9 MPH (8 KT) (direction variable):0
Visibility: greater than 7 mile(s):0
Sky conditions: mostly cloudy
Temperature: 59 F (15 C)
Dew Point: 50 F (10 C)
Relative Humidity: 72%
Pressure (altimeter): 29.71 in. Hg (1006 hPa)
ob: LEBL 270330Z 07008KT 030V110 9999 SCT032 BKN040 15/10 Q1006 NOSIG
cycle: 3

Station Type Date Time Source
LEBL TAF 2020/09/26 22:39 UTC NOAA

TAF
AMD TAF
AMD LEBL 262235Z 2622/2718 27015KT 9999 FEW020 TX23/2712Z TN14/2706Z
TEMPO 2622/2624 27015G25KT
BECMG 2622/2624 33005KT
BECMG 2716/2718 23006KT

Example: see airport list